Current | Forecast
Updated: 2:52 PM JST on April 27, 2018
Observed at Metabaru AB, Japan
Temperature 77°F
Humidity 32%
Dew Point 45°F
Wind West at 7 mph
Pressure 29.89 in (Steady)
Conditions Partly Cloudy
Visibility 6.2 miles
UV 8 out of 16
Clouds (FEW) : 3000 ft
Yesterday's Maximum 59°F
Yesterday's Minimum 57°F approx.
Yesterday's Heating Degree Days 7 approx.
Sunrise5:36 AM JST
Sunset6:59 PM JST
Moon Rise4:12 PM JST
Moon Set4:05 AM JST
Moon PhaseMoon Phase
Waxing Gibbous
Raw METARSPECI RJDM 270552Z 26006KT 9999 FEW030 25/07 Q1012 RMK 1CU030 A2988


Monday
. High: 66° F.
Tuesday
. High: 66° F.
Wednesday
. High: 62° F.
Thursday
. High: 64° F.
Friday
. High: 66° F.
Saturday
. High: 66° F.
Sunday
. High: 69° F.
Monday
. High: 69° F.

Units: English | Metric

Find the Weather for any City, State or Zipcode, or Country:

U.S. State List | Severe Weather | Tropical Storms | Ski Conditions
United States | Canada | Central America | South America | Asia | Europe | Australia | Africa | Islands

Weather Underground

© Copyright 2018
The Weather Company, LLC